sensor_id;sensor_type;location;lat;lon;timestamp;P1;durP1;ratioP1;P2;durP2;ratioP2
25351;SDS011;13304;48.464;8.712;2023-09-19T00:01:41;4.95;;;1.00;;
25351;SDS011;13304;48.464;8.712;2023-09-19T00:04:10;1.65;;;0.90;;
25351;SDS011;13304;48.464;8.712;2023-09-19T00:06:37;1.77;;;0.90;;
25351;SDS011;13304;48.464;8.712;2023-09-19T00:09:03;3.28;;;1.05;;
25351;SDS011;13304;48.464;8.712;2023-09-19T00:11:29;3.38;;;1.10;;
25351;SDS011;13304;48.464;8.712;2023-09-19T00:13:56;2.00;;;1.13;;
25351;SDS011;13304;48.464;8.712;2023-09-19T00:16:24;2.13;;;1.15;;
25351;SDS011;13304;48.464;8.712;2023-09-19T00:18:51;2.10;;;1.15;;
25351;SDS011;13304;48.464;8.712;2023-09-19T00:21:17;2.97;;;1.05;;
25351;SDS011;13304;48.464;8.712;2023-09-19T00:23:44;2.92;;;1.00;;
25351;SDS011;13304;48.464;8.712;2023-09-19T00:26:12;2.53;;;0.85;;
25351;SDS011;13304;48.464;8.712;2023-09-19T00:28:37;5.53;;;1.05;;
25351;SDS011;13304;48.464;8.712;2023-09-19T00:31:04;1.73;;;0.80;;
25351;SDS011;13304;48.464;8.712;2023-09-19T00:35:59;1.58;;;0.80;;
25351;SDS011;13304;48.464;8.712;2023-09-19T00:38:26;1.58;;;1.00;;
25351;SDS011;13304;48.464;8.712;2023-09-19T00:40:53;2.35;;;1.08;;
25351;SDS011;13304;48.464;8.712;2023-09-19T00:43:19;7.45;;;1.02;;
25351;SDS011;13304;48.464;8.712;2023-09-19T00:45:47;3.47;;;1.20;;
25351;SDS011;13304;48.464;8.712;2023-09-19T00:48:16;2.53;;;0.93;;
25351;SDS011;13304;48.464;8.712;2023-09-19T00:50:43;2.28;;;1.08;;
25351;SDS011;13304;48.464;8.712;2023-09-19T00:53:12;1.75;;;0.82;;
25351;SDS011;13304;48.464;8.712;2023-09-19T00:55:39;3.25;;;1.00;;
25351;SDS011;13304;48.464;8.712;2023-09-19T00:58:07;2.30;;;1.00;;
25351;SDS011;13304;48.464;8.712;2023-09-19T01:00:35;1.98;;;0.90;;
25351;SDS011;13304;48.464;8.712;2023-09-19T01:03:01;6.95;;;1.00;;
25351;SDS011;13304;48.464;8.712;2023-09-19T01:05:27;2.92;;;0.90;;
25351;SDS011;13304;48.464;8.712;2023-09-19T01:07:53;2.28;;;1.17;;
25351;SDS011;13304;48.464;8.712;2023-09-19T01:10:19;1.98;;;0.90;;
25351;SDS011;13304;48.464;8.712;2023-09-19T01:15:57;1.27;;;0.88;;
25351;SDS011;13304;48.464;8.712;2023-09-19T01:18:35;3.17;;;0.90;;
25351;SDS011;13304;48.464;8.712;2023-09-19T01:24:25;5.03;;;1.20;;
25351;SDS011;13304;48.464;8.712;2023-09-19T01:27:34;4.20;;;1.20;;
25351;SDS011;13304;48.464;8.712;2023-09-19T01:30:27;5.80;;;1.10;;
25351;SDS011;13304;48.464;8.712;2023-09-19T01:33:01;2.33;;;1.20;;
25351;SDS011;13304;48.464;8.712;2023-09-19T01:35:27;2.15;;;1.27;;
25351;SDS011;13304;48.464;8.712;2023-09-19T01:37:53;2.92;;;1.10;;
25351;SDS011;13304;48.464;8.712;2023-09-19T01:40:19;2.85;;;1.13;;
25351;SDS011;13304;48.464;8.712;2023-09-19T01:42:53;1.55;;;0.90;;
25351;SDS011;13304;48.464;8.712;2023-09-19T01:45:40;2.78;;;1.25;;
25351;SDS011;13304;48.464;8.712;2023-09-19T01:51:07;2.78;;;1.10;;
25351;SDS011;13304;48.464;8.712;2023-09-19T01:53:36;4.78;;;1.30;;
25351;SDS011;13304;48.464;8.712;2023-09-19T01:56:12;2.70;;;0.95;;
25351;SDS011;13304;48.464;8.712;2023-09-19T01:58:48;1.98;;;1.13;;
25351;SDS011;13304;48.464;8.712;2023-09-19T02:01:16;4.72;;;1.15;;
25351;SDS011;13304;48.464;8.712;2023-09-19T02:03:49;2.05;;;1.08;;
25351;SDS011;13304;48.464;8.712;2023-09-19T02:06:15;2.20;;;1.10;;
25351;SDS011;13304;48.464;8.712;2023-09-19T02:08:42;1.90;;;1.25;;
25351;SDS011;13304;48.464;8.712;2023-09-19T02:11:10;1.95;;;0.98;;
25351;SDS011;13304;48.464;8.712;2023-09-19T02:13:38;3.83;;;1.05;;
25351;SDS011;13304;48.464;8.712;2023-09-19T02:16:05;6.03;;;1.33;;
25351;SDS011;13304;48.464;8.712;2023-09-19T02:18:34;1.77;;;1.13;;
25351;SDS011;13304;48.464;8.712;2023-09-19T02:21:00;2.97;;;1.27;;
25351;SDS011;13304;48.464;8.712;2023-09-19T02:23:26;3.45;;;1.33;;
25351;SDS011;13304;48.464;8.712;2023-09-19T02:25:52;1.40;;;0.90;;
25351;SDS011;13304;48.464;8.712;2023-09-19T02:28:19;1.38;;;0.90;;
25351;SDS011;13304;48.464;8.712;2023-09-19T02:30:47;3.35;;;1.00;;
25351;SDS011;13304;48.464;8.712;2023-09-19T02:35:39;2.65;;;1.13;;
25351;SDS011;13304;48.464;8.712;2023-09-19T02:38:05;2.45;;;1.10;;
25351;SDS011;13304;48.464;8.712;2023-09-19T02:40:32;4.22;;;1.20;;
25351;SDS011;13304;48.464;8.712;2023-09-19T02:43:00;2.97;;;1.33;;
25351;SDS011;13304;48.464;8.712;2023-09-19T02:45:27;3.15;;;1.10;;
25351;SDS011;13304;48.464;8.712;2023-09-19T02:47:53;3.65;;;1.38;;
25351;SDS011;13304;48.464;8.712;2023-09-19T02:50:19;3.33;;;1.35;;
25351;SDS011;13304;48.464;8.712;2023-09-19T02:52:45;5.07;;;1.30;;
25351;SDS011;13304;48.464;8.712;2023-09-19T02:55:15;2.03;;;1.10;;
25351;SDS011;13304;48.464;8.712;2023-09-19T02:57:50;5.38;;;1.17;;
25351;SDS011;13304;48.464;8.712;2023-09-19T03:00:17;4.93;;;1.30;;
25351;SDS011;13304;48.464;8.712;2023-09-19T03:02:50;1.48;;;1.08;;
25351;SDS011;13304;48.464;8.712;2023-09-19T03:05:18;3.08;;;1.20;;
25351;SDS011;13304;48.464;8.712;2023-09-19T03:07:46;2.97;;;1.27;;
25351;SDS011;13304;48.464;8.712;2023-09-19T03:10:15;2.97;;;1.23;;
25351;SDS011;13304;48.464;8.712;2023-09-19T03:12:45;2.60;;;1.20;;
25351;SDS011;13304;48.464;8.712;2023-09-19T03:15:11;3.58;;;1.27;;
25351;SDS011;13304;48.464;8.712;2023-09-19T03:17:37;3.58;;;1.15;;
25351;SDS011;13304;48.464;8.712;2023-09-19T03:20:07;3.90;;;1.40;;
25351;SDS011;13304;48.464;8.712;2023-09-19T03:22:34;4.35;;;1.35;;
25351;SDS011;13304;48.464;8.712;2023-09-19T03:25:00;2.72;;;1.38;;
25351;SDS011;13304;48.464;8.712;2023-09-19T03:27:26;8.02;;;1.17;;
25351;SDS011;13304;48.464;8.712;2023-09-19T03:29:52;4.18;;;1.42;;
25351;SDS011;13304;48.464;8.712;2023-09-19T03:32:18;2.38;;;1.40;;
25351;SDS011;13304;48.464;8.712;2023-09-19T03:34:44;3.55;;;1.30;;
25351;SDS011;13304;48.464;8.712;2023-09-19T03:37:13;2.67;;;1.10;;
25351;SDS011;13304;48.464;8.712;2023-09-19T03:39:39;1.85;;;1.10;;
25351;SDS011;13304;48.464;8.712;2023-09-19T03:42:04;4.50;;;1.40;;
25351;SDS011;13304;48.464;8.712;2023-09-19T03:44:32;2.17;;;1.10;;
25351;SDS011;13304;48.464;8.712;2023-09-19T03:46:57;2.97;;;0.90;;
25351;SDS011;13304;48.464;8.712;2023-09-19T03:49:23;2.97;;;1.20;;
25351;SDS011;13304;48.464;8.712;2023-09-19T03:51:48;4.55;;;1.00;;
25351;SDS011;13304;48.464;8.712;2023-09-19T03:54:14;4.60;;;1.23;;
25351;SDS011;13304;48.464;8.712;2023-09-19T03:56:41;2.80;;;1.50;;
25351;SDS011;13304;48.464;8.712;2023-09-19T03:59:07;2.90;;;1.13;;
25351;SDS011;13304;48.464;8.712;2023-09-19T04:01:36;4.13;;;1.35;;
25351;SDS011;13304;48.464;8.712;2023-09-19T04:04:02;2.15;;;1.30;;
25351;SDS011;13304;48.464;8.712;2023-09-19T04:06:33;3.45;;;1.40;;
25351;SDS011;13304;48.464;8.712;2023-09-19T04:09:02;2.95;;;1.40;;
25351;SDS011;13304;48.464;8.712;2023-09-19T04:11:29;4.00;;;1.33;;
25351;SDS011;13304;48.464;8.712;2023-09-19T04:13:55;3.63;;;1.60;;
25351;SDS011;13304;48.464;8.712;2023-09-19T04:16:21;1.77;;;1.20;;
25351;SDS011;13304;48.464;8.712;2023-09-19T04:18:47;2.47;;;1.10;;
25351;SDS011;13304;48.464;8.712;2023-09-19T04:21:12;2.58;;;1.25;;
25351;SDS011;13304;48.464;8.712;2023-09-19T04:23:38;2.13;;;1.20;;
25351;SDS011;13304;48.464;8.712;2023-09-19T04:26:03;6.55;;;1.23;;
25351;SDS011;13304;48.464;8.712;2023-09-19T04:28:30;6.68;;;1.20;;
25351;SDS011;13304;48.464;8.712;2023-09-19T04:30:57;1.25;;;1.00;;
25351;SDS011;13304;48.464;8.712;2023-09-19T04:33:23;2.20;;;1.08;;
25351;SDS011;13304;48.464;8.712;2023-09-19T04:35:52;3.42;;;1.10;;
25351;SDS011;13304;48.464;8.712;2023-09-19T04:38:20;2.25;;;1.20;;
25351;SDS011;13304;48.464;8.712;2023-09-19T04:40:46;2.47;;;1.10;;
25351;SDS011;13304;48.464;8.712;2023-09-19T04:43:12;1.98;;;1.08;;
25351;SDS011;13304;48.464;8.712;2023-09-19T04:45:38;2.63;;;1.10;;
25351;SDS011;13304;48.464;8.712;2023-09-19T04:48:05;1.33;;;0.98;;
25351;SDS011;13304;48.464;8.712;2023-09-19T04:50:34;2.05;;;1.15;;
25351;SDS011;13304;48.464;8.712;2023-09-19T04:53:00;4.18;;;1.20;;
25351;SDS011;13304;48.464;8.712;2023-09-19T04:55:26;2.40;;;1.20;;
25351;SDS011;13304;48.464;8.712;2023-09-19T04:57:52;2.95;;;1.17;;
25351;SDS011;13304;48.464;8.712;2023-09-19T05:00:21;4.50;;;1.23;;
25351;SDS011;13304;48.464;8.712;2023-09-19T05:02:52;4.28;;;1.15;;
25351;SDS011;13304;48.464;8.712;2023-09-19T05:05:21;1.83;;;1.20;;
25351;SDS011;13304;48.464;8.712;2023-09-19T05:07:48;2.38;;;1.20;;
25351;SDS011;13304;48.464;8.712;2023-09-19T05:10:16;3.25;;;1.00;;
25351;SDS011;13304;48.464;8.712;2023-09-19T05:12:43;1.92;;;1.02;;
25351;SDS011;13304;48.464;8.712;2023-09-19T05:15:11;6.03;;;1.30;;
25351;SDS011;13304;48.464;8.712;2023-09-19T05:17:39;4.32;;;1.55;;
25351;SDS011;13304;48.464;8.712;2023-09-19T05:20:05;2.60;;;0.95;;
25351;SDS011;13304;48.464;8.712;2023-09-19T05:22:49;2.25;;;1.20;;
25351;SDS011;13304;48.464;8.712;2023-09-19T05:25:15;1.70;;;1.10;;
25351;SDS011;13304;48.464;8.712;2023-09-19T05:27:43;3.28;;;1.10;;
25351;SDS011;13304;48.464;8.712;2023-09-19T05:30:09;1.80;;;1.10;;
25351;SDS011;13304;48.464;8.712;2023-09-19T05:32:35;1.70;;;1.00;;
25351;SDS011;13304;48.464;8.712;2023-09-19T05:35:01;4.68;;;1.33;;
25351;SDS011;13304;48.464;8.712;2023-09-19T05:37:26;2.65;;;1.10;;
25351;SDS011;13304;48.464;8.712;2023-09-19T05:39:52;2.00;;;0.88;;
25351;SDS011;13304;48.464;8.712;2023-09-19T05:42:22;3.20;;;1.20;;
25351;SDS011;13304;48.464;8.712;2023-09-19T05:44:48;1.40;;;0.90;;
25351;SDS011;13304;48.464;8.712;2023-09-19T05:47:13;1.70;;;1.10;;
25351;SDS011;13304;48.464;8.712;2023-09-19T05:49:39;3.90;;;1.30;;
25351;SDS011;13304;48.464;8.712;2023-09-19T05:52:06;2.33;;;1.27;;
25351;SDS011;13304;48.464;8.712;2023-09-19T05:54:31;1.20;;;0.98;;
25351;SDS011;13304;48.464;8.712;2023-09-19T05:56:59;1.85;;;0.90;;
25351;SDS011;13304;48.464;8.712;2023-09-19T05:59:25;3.95;;;1.10;;
25351;SDS011;13304;48.464;8.712;2023-09-19T06:01:51;2.35;;;1.08;;
25351;SDS011;13304;48.464;8.712;2023-09-19T06:04:17;2.13;;;1.00;;
25351;SDS011;13304;48.464;8.712;2023-09-19T06:06:44;4.18;;;1.30;;
25351;SDS011;13304;48.464;8.712;2023-09-19T06:09:09;2.08;;;0.95;;
25351;SDS011;13304;48.464;8.712;2023-09-19T06:11:35;3.08;;;0.85;;
25351;SDS011;13304;48.464;8.712;2023-09-19T06:14:04;2.63;;;1.00;;
25351;SDS011;13304;48.464;8.712;2023-09-19T06:16:30;1.70;;;0.80;;
25351;SDS011;13304;48.464;8.712;2023-09-19T06:18:57;2.65;;;1.05;;
25351;SDS011;13304;48.464;8.712;2023-09-19T06:21:25;3.28;;;0.80;;
25351;SDS011;13304;48.464;8.712;2023-09-19T06:23:52;1.42;;;0.80;;
25351;SDS011;13304;48.464;8.712;2023-09-19T06:26:18;1.00;;;0.68;;
25351;SDS011;13304;48.464;8.712;2023-09-19T06:28:44;2.00;;;0.70;;
25351;SDS011;13304;48.464;8.712;2023-09-19T06:31:10;2.05;;;0.98;;
25351;SDS011;13304;48.464;8.712;2023-09-19T06:33:38;2.30;;;1.00;;
25351;SDS011;13304;48.464;8.712;2023-09-19T06:36:07;4.05;;;1.63;;
25351;SDS011;13304;48.464;8.712;2023-09-19T06:38:33;4.82;;;1.83;;
25351;SDS011;13304;48.464;8.712;2023-09-19T06:40:59;7.38;;;3.17;;
25351;SDS011;13304;48.464;8.712;2023-09-19T06:43:26;9.05;;;3.88;;
25351;SDS011;13304;48.464;8.712;2023-09-19T06:45:53;10.18;;;3.70;;
25351;SDS011;13304;48.464;8.712;2023-09-19T06:48:19;10.02;;;4.05;;
25351;SDS011;13304;48.464;8.712;2023-09-19T06:50:46;10.73;;;3.80;;
25351;SDS011;13304;48.464;8.712;2023-09-19T06:53:13;8.02;;;3.35;;
25351;SDS011;13304;48.464;8.712;2023-09-19T06:55:38;14.35;;;4.93;;
25351;SDS011;13304;48.464;8.712;2023-09-19T06:58:05;12.02;;;4.72;;
25351;SDS011;13304;48.464;8.712;2023-09-19T07:00:31;7.07;;;3.42;;
25351;SDS011;13304;48.464;8.712;2023-09-19T07:03:01;4.82;;;2.13;;
25351;SDS011;13304;48.464;8.712;2023-09-19T07:05:32;5.18;;;1.90;;
25351;SDS011;13304;48.464;8.712;2023-09-19T07:07:58;4.32;;;1.58;;
25351;SDS011;13304;48.464;8.712;2023-09-19T07:10:26;3.58;;;1.85;;
25351;SDS011;13304;48.464;8.712;2023-09-19T07:12:58;3.38;;;1.52;;
25351;SDS011;13304;48.464;8.712;2023-09-19T07:15:25;5.28;;;1.85;;
25351;SDS011;13304;48.464;8.712;2023-09-19T07:17:54;3.00;;;1.80;;
25351;SDS011;13304;48.464;8.712;2023-09-19T07:20:21;5.43;;;2.22;;
25351;SDS011;13304;48.464;8.712;2023-09-19T07:22:47;5.72;;;2.45;;
25351;SDS011;13304;48.464;8.712;2023-09-19T07:25:15;5.13;;;2.28;;
25351;SDS011;13304;48.464;8.712;2023-09-19T07:27:41;4.32;;;2.10;;
25351;SDS011;13304;48.464;8.712;2023-09-19T07:30:07;4.65;;;2.42;;
25351;SDS011;13304;48.464;8.712;2023-09-19T07:32:34;5.35;;;2.42;;
25351;SDS011;13304;48.464;8.712;2023-09-19T07:35:01;4.78;;;2.22;;
25351;SDS011;13304;48.464;8.712;2023-09-19T07:37:29;5.68;;;1.70;;
25351;SDS011;13304;48.464;8.712;2023-09-19T07:42:24;3.15;;;1.10;;
25351;SDS011;13304;48.464;8.712;2023-09-19T07:44:50;5.22;;;1.20;;
25351;SDS011;13304;48.464;8.712;2023-09-19T07:47:16;3.33;;;1.00;;
25351;SDS011;13304;48.464;8.712;2023-09-19T07:49:42;2.08;;;0.90;;
25351;SDS011;13304;48.464;8.712;2023-09-19T07:52:08;2.58;;;1.20;;
25351;SDS011;13304;48.464;8.712;2023-09-19T07:54:35;2.38;;;1.05;;
25351;SDS011;13304;48.464;8.712;2023-09-19T07:57:01;3.10;;;1.50;;
25351;SDS011;13304;48.464;8.712;2023-09-19T07:59:27;3.42;;;1.38;;
25351;SDS011;13304;48.464;8.712;2023-09-19T08:01:53;3.17;;;1.30;;
25351;SDS011;13304;48.464;8.712;2023-09-19T08:04:19;3.47;;;1.33;;
25351;SDS011;13304;48.464;8.712;2023-09-19T08:06:45;3.78;;;1.30;;
25351;SDS011;13304;48.464;8.712;2023-09-19T08:09:10;2.70;;;1.10;;
25351;SDS011;13304;48.464;8.712;2023-09-19T08:11:37;4.40;;;1.20;;
25351;SDS011;13304;48.464;8.712;2023-09-19T08:14:04;5.13;;;1.20;;
25351;SDS011;13304;48.464;8.712;2023-09-19T08:16:31;4.60;;;1.30;;
25351;SDS011;13304;48.464;8.712;2023-09-19T08:18:56;4.70;;;1.33;;
25351;SDS011;13304;48.464;8.712;2023-09-19T08:21:22;2.10;;;1.02;;
25351;SDS011;13304;48.464;8.712;2023-09-19T08:23:49;4.45;;;1.52;;
25351;SDS011;13304;48.464;8.712;2023-09-19T08:26:15;2.70;;;1.10;;
25351;SDS011;13304;48.464;8.712;2023-09-19T08:28:41;4.30;;;1.40;;
25351;SDS011;13304;48.464;8.712;2023-09-19T08:31:07;5.75;;;1.42;;
25351;SDS011;13304;48.464;8.712;2023-09-19T08:33:34;4.72;;;1.52;;
25351;SDS011;13304;48.464;8.712;2023-09-19T08:36:01;2.72;;;1.35;;
25351;SDS011;13304;48.464;8.712;2023-09-19T08:38:30;2.53;;;1.38;;
25351;SDS011;13304;48.464;8.712;2023-09-19T08:40:58;4.22;;;1.35;;
25351;SDS011;13304;48.464;8.712;2023-09-19T08:43:27;2.25;;;1.20;;
25351;SDS011;13304;48.464;8.712;2023-09-19T08:48:31;2.22;;;1.20;;
25351;SDS011;13304;48.464;8.712;2023-09-19T08:51:12;3.85;;;1.27;;
25351;SDS011;13304;48.464;8.712;2023-09-19T08:53:54;2.03;;;1.05;;
25351;SDS011;13304;48.464;8.712;2023-09-19T08:56:34;2.85;;;1.30;;
25351;SDS011;13304;48.464;8.712;2023-09-19T08:59:04;3.00;;;1.30;;
25351;SDS011;13304;48.464;8.712;2023-09-19T09:01:32;2.13;;;1.15;;
25351;SDS011;13304;48.464;8.712;2023-09-19T09:03:58;3.90;;;1.17;;
25351;SDS011;13304;48.464;8.712;2023-09-19T09:06:24;5.13;;;1.52;;
25351;SDS011;13304;48.464;8.712;2023-09-19T09:08:51;7.75;;;1.90;;
25351;SDS011;13304;48.464;8.712;2023-09-19T09:11:17;5.60;;;1.40;;
25351;SDS011;13304;48.464;8.712;2023-09-19T09:13:44;3.90;;;1.67;;
25351;SDS011;13304;48.464;8.712;2023-09-19T09:16:10;4.38;;;1.85;;
25351;SDS011;13304;48.464;8.712;2023-09-19T09:18:36;3.58;;;1.67;;
25351;SDS011;13304;48.464;8.712;2023-09-19T09:21:02;5.43;;;2.05;;
25351;SDS011;13304;48.464;8.712;2023-09-19T09:23:29;2.53;;;1.52;;
25351;SDS011;13304;48.464;8.712;2023-09-19T09:25:57;3.28;;;1.40;;
25351;SDS011;13304;48.464;8.712;2023-09-19T09:28:25;6.17;;;1.70;;
25351;SDS011;13304;48.464;8.712;2023-09-19T09:30:53;2.70;;;1.70;;
25351;SDS011;13304;48.464;8.712;2023-09-19T09:33:33;4.88;;;1.67;;
25351;SDS011;13304;48.464;8.712;2023-09-19T09:35:59;4.03;;;1.42;;
25351;SDS011;13304;48.464;8.712;2023-09-19T09:38:28;6.90;;;1.30;;
25351;SDS011;13304;48.464;8.712;2023-09-19T09:41:15;3.65;;;1.58;;
25351;SDS011;13304;48.464;8.712;2023-09-19T09:43:52;2.90;;;1.58;;
25351;SDS011;13304;48.464;8.712;2023-09-19T09:46:19;5.90;;;1.77;;
25351;SDS011;13304;48.464;8.712;2023-09-19T09:52:00;3.90;;;1.40;;
25351;SDS011;13304;48.464;8.712;2023-09-19T09:54:28;5.40;;;1.55;;
25351;SDS011;13304;48.464;8.712;2023-09-19T09:57:04;4.40;;;1.30;;
25351;SDS011;13304;48.464;8.712;2023-09-19T09:59:55;3.33;;;1.50;;
25351;SDS011;13304;48.464;8.712;2023-09-19T10:02:41;3.22;;;1.38;;
25351;SDS011;13304;48.464;8.712;2023-09-19T10:05:14;2.70;;;1.50;;
25351;SDS011;13304;48.464;8.712;2023-09-19T10:08:11;2.03;;;1.35;;
25351;SDS011;13304;48.464;8.712;2023-09-19T10:10:38;2.63;;;1.33;;
25351;SDS011;13304;48.464;8.712;2023-09-19T10:13:08;2.92;;;1.40;;
25351;SDS011;13304;48.464;8.712;2023-09-19T10:15:38;3.08;;;1.60;;
25351;SDS011;13304;48.464;8.712;2023-09-19T10:18:11;3.05;;;1.42;;
25351;SDS011;13304;48.464;8.712;2023-09-19T10:20:43;5.88;;;1.60;;
25351;SDS011;13304;48.464;8.712;2023-09-19T10:23:11;2.35;;;1.27;;
25351;SDS011;13304;48.464;8.712;2023-09-19T10:25:38;2.45;;;1.33;;
25351;SDS011;13304;48.464;8.712;2023-09-19T10:28:06;3.17;;;1.45;;
25351;SDS011;13304;48.464;8.712;2023-09-19T10:30:45;2.65;;;1.40;;
25351;SDS011;13304;48.464;8.712;2023-09-19T10:33:12;3.75;;;1.30;;
25351;SDS011;13304;48.464;8.712;2023-09-19T10:35:44;1.83;;;1.38;;
25351;SDS011;13304;48.464;8.712;2023-09-19T10:38:11;2.80;;;1.13;;
25351;SDS011;13304;48.464;8.712;2023-09-19T10:40:39;3.13;;;1.42;;
25351;SDS011;13304;48.464;8.712;2023-09-19T10:43:12;3.17;;;1.25;;
25351;SDS011;13304;48.464;8.712;2023-09-19T10:45:42;3.70;;;1.60;;
25351;SDS011;13304;48.464;8.712;2023-09-19T10:48:09;4.53;;;1.60;;
25351;SDS011;13304;48.464;8.712;2023-09-19T10:50:41;4.28;;;1.65;;
25351;SDS011;13304;48.464;8.712;2023-09-19T10:53:16;3.75;;;1.77;;
25351;SDS011;13304;48.464;8.712;2023-09-19T10:55:47;3.47;;;1.60;;
25351;SDS011;13304;48.464;8.712;2023-09-19T10:58:29;3.85;;;1.15;;
25351;SDS011;13304;48.464;8.712;2023-09-19T11:00:59;2.88;;;1.52;;
25351;SDS011;13304;48.464;8.712;2023-09-19T11:03:37;3.67;;;1.60;;
25351;SDS011;13304;48.464;8.712;2023-09-19T11:06:12;4.45;;;1.60;;
25351;SDS011;13304;48.464;8.712;2023-09-19T11:09:02;2.75;;;1.50;;
25351;SDS011;13304;48.464;8.712;2023-09-19T11:11:41;5.38;;;1.55;;
25351;SDS011;13304;48.464;8.712;2023-09-19T11:14:29;3.50;;;1.77;;
25351;SDS011;13304;48.464;8.712;2023-09-19T11:30:31;2.92;;;1.45;;
25351;SDS011;13304;48.464;8.712;2023-09-19T11:33:20;3.78;;;1.77;;
25351;SDS011;13304;48.464;8.712;2023-09-19T11:36:12;3.88;;;1.40;;
25351;SDS011;13304;48.464;8.712;2023-09-19T11:43:52;7.07;;;1.17;;
25351;SDS011;13304;48.464;8.712;2023-09-19T11:46:24;2.10;;;1.33;;
25351;SDS011;13304;48.464;8.712;2023-09-19T11:48:53;7.53;;;1.42;;
25351;SDS011;13304;48.464;8.712;2023-09-19T11:51:40;2.58;;;1.38;;
25351;SDS011;13304;48.464;8.712;2023-09-19T11:54:10;3.05;;;1.40;;
25351;SDS011;13304;48.464;8.712;2023-09-19T11:56:45;3.00;;;1.23;;
25351;SDS011;13304;48.464;8.712;2023-09-19T11:59:19;4.43;;;1.40;;
25351;SDS011;13304;48.464;8.712;2023-09-19T12:01:52;4.68;;;1.45;;
25351;SDS011;13304;48.464;8.712;2023-09-19T12:04:43;6.47;;;1.65;;
25351;SDS011;13304;48.464;8.712;2023-09-19T12:07:14;4.00;;;1.45;;
25351;SDS011;13304;48.464;8.712;2023-09-19T12:09:41;3.30;;;1.42;;
25351;SDS011;13304;48.464;8.712;2023-09-19T12:12:18;2.50;;;1.20;;
25351;SDS011;13304;48.464;8.712;2023-09-19T12:14:48;4.97;;;1.40;;
25351;SDS011;13304;48.464;8.712;2023-09-19T12:17:15;2.92;;;1.40;;
25351;SDS011;13304;48.464;8.712;2023-09-19T12:19:51;2.80;;;1.42;;
25351;SDS011;13304;48.464;8.712;2023-09-19T12:22:18;3.40;;;1.15;;
25351;SDS011;13304;48.464;8.712;2023-09-19T12:24:45;1.98;;;1.10;;
25351;SDS011;13304;48.464;8.712;2023-09-19T12:27:11;2.47;;;1.27;;
25351;SDS011;13304;48.464;8.712;2023-09-19T12:29:48;2.13;;;1.10;;
25351;SDS011;13304;48.464;8.712;2023-09-19T12:32:15;2.88;;;1.40;;
25351;SDS011;13304;48.464;8.712;2023-09-19T12:34:52;5.35;;;1.42;;
25351;SDS011;13304;48.464;8.712;2023-09-19T12:37:19;2.50;;;1.42;;
25351;SDS011;13304;48.464;8.712;2023-09-19T12:39:51;1.92;;;1.08;;
25351;SDS011;13304;48.464;8.712;2023-09-19T12:42:21;3.30;;;1.35;;
25351;SDS011;13304;48.464;8.712;2023-09-19T12:44:49;3.33;;;1.30;;
25351;SDS011;13304;48.464;8.712;2023-09-19T12:47:22;3.40;;;1.23;;
25351;SDS011;13304;48.464;8.712;2023-09-19T12:52:54;2.45;;;1.30;;
25351;SDS011;13304;48.464;8.712;2023-09-19T12:58:08;5.15;;;1.50;;
25351;SDS011;13304;48.464;8.712;2023-09-19T13:00:40;4.57;;;1.30;;
25351;SDS011;13304;48.464;8.712;2023-09-19T13:03:24;3.35;;;1.30;;
25351;SDS011;13304;48.464;8.712;2023-09-19T13:05:55;6.32;;;1.42;;
25351;SDS011;13304;48.464;8.712;2023-09-19T13:13:26;2.55;;;1.35;;
25351;SDS011;13304;48.464;8.712;2023-09-19T13:15:53;2.22;;;1.25;;
25351;SDS011;13304;48.464;8.712;2023-09-19T13:18:22;4.18;;;1.67;;
25351;SDS011;13304;48.464;8.712;2023-09-19T13:21:10;4.75;;;1.40;;
25351;SDS011;13304;48.464;8.712;2023-09-19T13:23:47;4.38;;;1.60;;
25351;SDS011;13304;48.464;8.712;2023-09-19T13:26:14;2.60;;;1.05;;
25351;SDS011;13304;48.464;8.712;2023-09-19T13:28:40;1.90;;;1.13;;
25351;SDS011;13304;48.464;8.712;2023-09-19T13:31:06;4.22;;;1.52;;
25351;SDS011;13304;48.464;8.712;2023-09-19T13:33:33;2.60;;;1.20;;
25351;SDS011;13304;48.464;8.712;2023-09-19T13:35:59;3.33;;;1.60;;
25351;SDS011;13304;48.464;8.712;2023-09-19T13:38:24;2.88;;;1.05;;
25351;SDS011;13304;48.464;8.712;2023-09-19T13:40:50;2.28;;;1.17;;
25351;SDS011;13304;48.464;8.712;2023-09-19T13:43:17;4.70;;;1.20;;
25351;SDS011;13304;48.464;8.712;2023-09-19T13:45:43;1.95;;;1.10;;
25351;SDS011;13304;48.464;8.712;2023-09-19T13:48:08;1.48;;;1.20;;
25351;SDS011;13304;48.464;8.712;2023-09-19T13:50:36;2.10;;;1.10;;
25351;SDS011;13304;48.464;8.712;2023-09-19T13:53:07;7.13;;;1.38;;
25351;SDS011;13304;48.464;8.712;2023-09-19T13:55:35;3.00;;;1.50;;
25351;SDS011;13304;48.464;8.712;2023-09-19T13:58:02;3.15;;;1.25;;
25351;SDS011;13304;48.464;8.712;2023-09-19T14:00:31;1.50;;;1.10;;
25351;SDS011;13304;48.464;8.712;2023-09-19T14:02:59;1.80;;;1.27;;
25351;SDS011;13304;48.464;8.712;2023-09-19T14:05:26;1.63;;;1.10;;
25351;SDS011;13304;48.464;8.712;2023-09-19T14:07:53;2.50;;;1.23;;
25351;SDS011;13304;48.464;8.712;2023-09-19T14:10:22;3.90;;;1.30;;
25351;SDS011;13304;48.464;8.712;2023-09-19T14:12:48;3.45;;;1.30;;
25351;SDS011;13304;48.464;8.712;2023-09-19T14:15:13;1.77;;;1.23;;
25351;SDS011;13304;48.464;8.712;2023-09-19T14:17:39;2.80;;;1.15;;
25351;SDS011;13304;48.464;8.712;2023-09-19T14:20:10;2.63;;;0.95;;
25351;SDS011;13304;48.464;8.712;2023-09-19T14:22:36;2.65;;;1.38;;
25351;SDS011;13304;48.464;8.712;2023-09-19T14:25:04;3.15;;;1.58;;
25351;SDS011;13304;48.464;8.712;2023-09-19T14:27:30;3.38;;;1.27;;
25351;SDS011;13304;48.464;8.712;2023-09-19T14:29:56;4.78;;;1.40;;
25351;SDS011;13304;48.464;8.712;2023-09-19T14:32:22;4.10;;;1.67;;
25351;SDS011;13304;48.464;8.712;2023-09-19T14:34:48;3.88;;;1.25;;
25351;SDS011;13304;48.464;8.712;2023-09-19T14:37:14;2.10;;;1.15;;
25351;SDS011;13304;48.464;8.712;2023-09-19T14:39:41;3.05;;;1.13;;
25351;SDS011;13304;48.464;8.712;2023-09-19T14:42:09;2.25;;;1.10;;
25351;SDS011;13304;48.464;8.712;2023-09-19T14:44:35;3.65;;;1.33;;
25351;SDS011;13304;48.464;8.712;2023-09-19T14:47:02;3.70;;;1.08;;
25351;SDS011;13304;48.464;8.712;2023-09-19T14:49:32;2.22;;;1.40;;
25351;SDS011;13304;48.464;8.712;2023-09-19T14:51:58;3.88;;;1.30;;
25351;SDS011;13304;48.464;8.712;2023-09-19T14:54:24;3.20;;;1.50;;
25351;SDS011;13304;48.464;8.712;2023-09-19T14:56:50;3.47;;;1.10;;
25351;SDS011;13304;48.464;8.712;2023-09-19T14:59:28;3.28;;;1.20;;
25351;SDS011;13304;48.464;8.712;2023-09-19T15:01:57;1.23;;;0.97;;
25351;SDS011;13304;48.464;8.712;2023-09-19T15:04:23;3.80;;;1.40;;
25351;SDS011;13304;48.464;8.712;2023-09-19T15:06:49;2.83;;;1.30;;
25351;SDS011;13304;48.464;8.712;2023-09-19T15:09:16;2.15;;;1.10;;
25351;SDS011;13304;48.464;8.712;2023-09-19T15:11:44;1.75;;;1.02;;
25351;SDS011;13304;48.464;8.712;2023-09-19T15:14:09;1.50;;;1.13;;
25351;SDS011;13304;48.464;8.712;2023-09-19T15:16:35;1.30;;;1.08;;
25351;SDS011;13304;48.464;8.712;2023-09-19T15:19:00;2.13;;;1.10;;
25351;SDS011;13304;48.464;8.712;2023-09-19T15:21:26;2.83;;;1.48;;
25351;SDS011;13304;48.464;8.712;2023-09-19T15:23:52;2.30;;;1.02;;
25351;SDS011;13304;48.464;8.712;2023-09-19T15:26:17;1.90;;;1.40;;
25351;SDS011;13304;48.464;8.712;2023-09-19T15:28:46;2.88;;;1.38;;
25351;SDS011;13304;48.464;8.712;2023-09-19T15:31:13;2.00;;;1.30;;
25351;SDS011;13304;48.464;8.712;2023-09-19T15:33:39;3.25;;;1.45;;
25351;SDS011;13304;48.464;8.712;2023-09-19T15:38:31;2.72;;;1.30;;
25351;SDS011;13304;48.464;8.712;2023-09-19T15:41:18;4.65;;;1.30;;
25351;SDS011;13304;48.464;8.712;2023-09-19T15:43:45;2.05;;;1.20;;
25351;SDS011;13304;48.464;8.712;2023-09-19T15:46:11;2.08;;;1.33;;
25351;SDS011;13304;48.464;8.712;2023-09-19T15:48:38;2.35;;;1.45;;
25351;SDS011;13304;48.464;8.712;2023-09-19T15:51:04;2.53;;;1.25;;
25351;SDS011;13304;48.464;8.712;2023-09-19T15:53:41;2.28;;;1.58;;